sensor_id;sensor_type;location;lat;lon;timestamp;P1;durP1;ratioP1;P2;durP2;ratioP2
3959;SDS011;1994;48.640;8.894;2023-06-10T00:01:55;6.50;;;6.00;;
3959;SDS011;1994;48.640;8.894;2023-06-10T00:04:23;5.67;;;5.20;;
3959;SDS011;1994;48.640;8.894;2023-06-10T00:06:48;5.70;;;5.30;;
3959;SDS011;1994;48.640;8.894;2023-06-10T00:09:14;5.07;;;4.67;;
3959;SDS011;1994;48.640;8.894;2023-06-10T00:11:40;6.20;;;5.60;;
3959;SDS011;1994;48.640;8.894;2023-06-10T00:14:07;6.60;;;6.00;;
3959;SDS011;1994;48.640;8.894;2023-06-10T00:16:33;5.60;;;5.20;;
3959;SDS011;1994;48.640;8.894;2023-06-10T00:19:03;6.87;;;6.27;;
3959;SDS011;1994;48.640;8.894;2023-06-10T00:21:30;5.63;;;5.20;;
3959;SDS011;1994;48.640;8.894;2023-06-10T00:24:05;6.30;;;5.70;;
3959;SDS011;1994;48.640;8.894;2023-06-10T00:26:36;6.07;;;5.50;;
3959;SDS011;1994;48.640;8.894;2023-06-10T00:29:04;6.50;;;5.97;;
3959;SDS011;1994;48.640;8.894;2023-06-10T00:31:30;10.43;;;5.70;;
3959;SDS011;1994;48.640;8.894;2023-06-10T00:33:56;6.47;;;5.87;;
3959;SDS011;1994;48.640;8.894;2023-06-10T00:36:21;8.70;;;5.80;;
3959;SDS011;1994;48.640;8.894;2023-06-10T00:38:47;6.10;;;5.70;;
3959;SDS011;1994;48.640;8.894;2023-06-10T00:41:13;5.77;;;5.37;;
3959;SDS011;1994;48.640;8.894;2023-06-10T00:43:39;5.40;;;5.00;;
3959;SDS011;1994;48.640;8.894;2023-06-10T00:46:05;6.40;;;5.90;;
3959;SDS011;1994;48.640;8.894;2023-06-10T00:48:31;6.60;;;6.00;;
3959;SDS011;1994;48.640;8.894;2023-06-10T00:50:57;6.30;;;5.77;;
3959;SDS011;1994;48.640;8.894;2023-06-10T00:53:24;5.80;;;5.40;;
3959;SDS011;1994;48.640;8.894;2023-06-10T00:55:51;6.37;;;5.87;;
3959;SDS011;1994;48.640;8.894;2023-06-10T00:58:17;6.97;;;6.27;;
3959;SDS011;1994;48.640;8.894;2023-06-10T01:00:44;6.50;;;6.00;;
3959;SDS011;1994;48.640;8.894;2023-06-10T01:03:10;6.03;;;5.50;;
3959;SDS011;1994;48.640;8.894;2023-06-10T01:05:38;6.03;;;5.43;;
3959;SDS011;1994;48.640;8.894;2023-06-10T01:10:55;6.40;;;5.80;;
3959;SDS011;1994;48.640;8.894;2023-06-10T01:13:25;7.40;;;6.30;;
3959;SDS011;1994;48.640;8.894;2023-06-10T01:15:54;6.63;;;6.03;;
3959;SDS011;1994;48.640;8.894;2023-06-10T01:18:21;6.67;;;6.07;;
3959;SDS011;1994;48.640;8.894;2023-06-10T01:20:47;6.20;;;5.60;;
3959;SDS011;1994;48.640;8.894;2023-06-10T01:23:13;6.23;;;5.63;;
3959;SDS011;1994;48.640;8.894;2023-06-10T01:25:52;7.17;;;6.47;;
3959;SDS011;1994;48.640;8.894;2023-06-10T01:28:31;6.70;;;5.73;;
3959;SDS011;1994;48.640;8.894;2023-06-10T01:34:13;6.10;;;5.60;;
3959;SDS011;1994;48.640;8.894;2023-06-10T01:36:43;8.10;;;6.30;;
3959;SDS011;1994;48.640;8.894;2023-06-10T01:39:13;7.87;;;6.00;;
3959;SDS011;1994;48.640;8.894;2023-06-10T01:41:42;6.53;;;6.03;;
3959;SDS011;1994;48.640;8.894;2023-06-10T01:44:09;6.23;;;5.73;;
3959;SDS011;1994;48.640;8.894;2023-06-10T01:46:35;6.30;;;5.80;;
3959;SDS011;1994;48.640;8.894;2023-06-10T01:49:01;6.50;;;6.07;;
3959;SDS011;1994;48.640;8.894;2023-06-10T01:51:27;6.33;;;5.73;;
3959;SDS011;1994;48.640;8.894;2023-06-10T01:53:53;6.17;;;5.57;;
3959;SDS011;1994;48.640;8.894;2023-06-10T01:56:18;6.00;;;5.10;;
3959;SDS011;1994;48.640;8.894;2023-06-10T01:58:48;6.57;;;5.97;;
3959;SDS011;1994;48.640;8.894;2023-06-10T02:01:13;6.87;;;6.27;;
3959;SDS011;1994;48.640;8.894;2023-06-10T02:03:39;6.10;;;5.60;;
3959;SDS011;1994;48.640;8.894;2023-06-10T02:06:05;6.57;;;5.77;;
3959;SDS011;1994;48.640;8.894;2023-06-10T02:08:31;5.90;;;5.30;;
3959;SDS011;1994;48.640;8.894;2023-06-10T02:10:57;5.87;;;5.37;;
3959;SDS011;1994;48.640;8.894;2023-06-10T02:13:23;6.60;;;5.90;;
3959;SDS011;1994;48.640;8.894;2023-06-10T02:15:48;7.07;;;6.37;;
3959;SDS011;1994;48.640;8.894;2023-06-10T02:18:14;6.90;;;6.30;;
3959;SDS011;1994;48.640;8.894;2023-06-10T02:20:40;6.00;;;5.50;;
3959;SDS011;1994;48.640;8.894;2023-06-10T02:23:06;6.23;;;5.63;;
3959;SDS011;1994;48.640;8.894;2023-06-10T02:25:32;7.07;;;6.30;;
3959;SDS011;1994;48.640;8.894;2023-06-10T02:27:57;6.70;;;5.90;;
3959;SDS011;1994;48.640;8.894;2023-06-10T02:30:23;6.63;;;6.03;;
3959;SDS011;1994;48.640;8.894;2023-06-10T02:32:49;6.60;;;6.00;;
3959;SDS011;1994;48.640;8.894;2023-06-10T02:35:15;6.23;;;5.67;;
3959;SDS011;1994;48.640;8.894;2023-06-10T02:37:42;7.00;;;5.60;;
3959;SDS011;1994;48.640;8.894;2023-06-10T02:40:09;11.50;;;5.93;;
3959;SDS011;1994;48.640;8.894;2023-06-10T02:42:36;6.63;;;6.03;;
3959;SDS011;1994;48.640;8.894;2023-06-10T02:45:02;6.50;;;5.90;;
3959;SDS011;1994;48.640;8.894;2023-06-10T02:47:28;7.47;;;5.93;;
3959;SDS011;1994;48.640;8.894;2023-06-10T02:49:55;6.50;;;5.90;;
3959;SDS011;1994;48.640;8.894;2023-06-10T02:52:20;8.00;;;6.40;;
3959;SDS011;1994;48.640;8.894;2023-06-10T02:54:46;7.47;;;6.70;;
3959;SDS011;1994;48.640;8.894;2023-06-10T02:57:12;9.90;;;6.63;;
3959;SDS011;1994;48.640;8.894;2023-06-10T02:59:39;6.20;;;5.57;;
3959;SDS011;1994;48.640;8.894;2023-06-10T03:02:05;10.30;;;5.97;;
3959;SDS011;1994;48.640;8.894;2023-06-10T03:04:32;6.70;;;5.93;;
3959;SDS011;1994;48.640;8.894;2023-06-10T03:06:58;9.23;;;6.73;;
3959;SDS011;1994;48.640;8.894;2023-06-10T03:09:28;6.10;;;5.60;;
3959;SDS011;1994;48.640;8.894;2023-06-10T03:11:54;6.53;;;5.90;;
3959;SDS011;1994;48.640;8.894;2023-06-10T03:14:20;6.40;;;5.90;;
3959;SDS011;1994;48.640;8.894;2023-06-10T03:16:46;7.07;;;6.37;;
3959;SDS011;1994;48.640;8.894;2023-06-10T03:19:11;6.67;;;6.17;;
3959;SDS011;1994;48.640;8.894;2023-06-10T03:21:37;10.67;;;6.00;;
3959;SDS011;1994;48.640;8.894;2023-06-10T03:24:03;7.00;;;6.30;;
3959;SDS011;1994;48.640;8.894;2023-06-10T03:26:30;6.43;;;5.53;;
3959;SDS011;1994;48.640;8.894;2023-06-10T03:28:56;6.77;;;6.17;;
3959;SDS011;1994;48.640;8.894;2023-06-10T03:31:21;8.07;;;7.27;;
3959;SDS011;1994;48.640;8.894;2023-06-10T03:33:47;8.83;;;6.43;;
3959;SDS011;1994;48.640;8.894;2023-06-10T03:36:13;6.67;;;6.07;;
3959;SDS011;1994;48.640;8.894;2023-06-10T03:38:38;6.90;;;6.20;;
3959;SDS011;1994;48.640;8.894;2023-06-10T03:41:04;6.47;;;5.87;;
3959;SDS011;1994;48.640;8.894;2023-06-10T03:43:30;6.27;;;5.77;;
3959;SDS011;1994;48.640;8.894;2023-06-10T03:45:56;6.33;;;5.73;;
3959;SDS011;1994;48.640;8.894;2023-06-10T03:48:22;6.37;;;5.87;;
3959;SDS011;1994;48.640;8.894;2023-06-10T03:50:47;9.10;;;7.07;;
3959;SDS011;1994;48.640;8.894;2023-06-10T03:53:15;7.20;;;6.60;;
3959;SDS011;1994;48.640;8.894;2023-06-10T03:55:41;8.57;;;6.50;;
3959;SDS011;1994;48.640;8.894;2023-06-10T03:58:07;7.30;;;6.60;;
3959;SDS011;1994;48.640;8.894;2023-06-10T04:00:33;7.97;;;7.20;;
3959;SDS011;1994;48.640;8.894;2023-06-10T04:03:06;7.80;;;7.10;;
3959;SDS011;1994;48.640;8.894;2023-06-10T04:05:39;7.93;;;6.73;;
3959;SDS011;1994;48.640;8.894;2023-06-10T04:08:06;7.27;;;6.57;;
3959;SDS011;1994;48.640;8.894;2023-06-10T04:10:33;6.53;;;5.90;;
3959;SDS011;1994;48.640;8.894;2023-06-10T04:12:58;15.80;;;6.17;;
3959;SDS011;1994;48.640;8.894;2023-06-10T04:15:24;6.50;;;5.90;;
3959;SDS011;1994;48.640;8.894;2023-06-10T04:17:50;6.77;;;6.17;;
3959;SDS011;1994;48.640;8.894;2023-06-10T04:20:16;6.53;;;5.93;;
3959;SDS011;1994;48.640;8.894;2023-06-10T04:22:42;6.77;;;6.17;;
3959;SDS011;1994;48.640;8.894;2023-06-10T04:25:08;6.30;;;5.73;;
3959;SDS011;1994;48.640;8.894;2023-06-10T04:27:35;7.53;;;6.40;;
3959;SDS011;1994;48.640;8.894;2023-06-10T04:30:01;10.07;;;6.17;;
3959;SDS011;1994;48.640;8.894;2023-06-10T04:32:29;7.67;;;6.90;;
3959;SDS011;1994;48.640;8.894;2023-06-10T04:34:55;7.00;;;5.63;;
3959;SDS011;1994;48.640;8.894;2023-06-10T04:37:21;6.27;;;5.77;;
3959;SDS011;1994;48.640;8.894;2023-06-10T04:39:47;7.60;;;6.23;;
3959;SDS011;1994;48.640;8.894;2023-06-10T04:42:12;7.00;;;6.40;;
3959;SDS011;1994;48.640;8.894;2023-06-10T04:44:38;7.60;;;6.90;;
3959;SDS011;1994;48.640;8.894;2023-06-10T04:47:04;6.00;;;5.50;;
3959;SDS011;1994;48.640;8.894;2023-06-10T04:49:30;6.33;;;5.83;;
3959;SDS011;1994;48.640;8.894;2023-06-10T04:51:56;6.70;;;5.87;;
3959;SDS011;1994;48.640;8.894;2023-06-10T04:54:22;6.50;;;5.90;;
3959;SDS011;1994;48.640;8.894;2023-06-10T04:56:48;6.90;;;6.20;;
3959;SDS011;1994;48.640;8.894;2023-06-10T04:59:14;6.73;;;6.00;;
3959;SDS011;1994;48.640;8.894;2023-06-10T05:01:40;6.30;;;5.80;;
3959;SDS011;1994;48.640;8.894;2023-06-10T05:04:05;6.70;;;5.97;;
3959;SDS011;1994;48.640;8.894;2023-06-10T05:06:31;7.27;;;6.57;;
3959;SDS011;1994;48.640;8.894;2023-06-10T05:08:57;6.43;;;5.90;;
3959;SDS011;1994;48.640;8.894;2023-06-10T05:11:22;5.87;;;5.37;;
3959;SDS011;1994;48.640;8.894;2023-06-10T05:13:48;5.80;;;5.30;;
3959;SDS011;1994;48.640;8.894;2023-06-10T05:16:14;6.33;;;5.77;;
3959;SDS011;1994;48.640;8.894;2023-06-10T05:18:40;5.87;;;5.37;;
3959;SDS011;1994;48.640;8.894;2023-06-10T05:21:06;7.63;;;5.80;;
3959;SDS011;1994;48.640;8.894;2023-06-10T05:23:32;6.57;;;5.97;;
3959;SDS011;1994;48.640;8.894;2023-06-10T05:25:58;5.80;;;5.30;;
3959;SDS011;1994;48.640;8.894;2023-06-10T05:28:24;7.97;;;7.27;;
3959;SDS011;1994;48.640;8.894;2023-06-10T05:30:50;6.60;;;6.00;;
3959;SDS011;1994;48.640;8.894;2023-06-10T05:33:16;6.67;;;6.07;;
3959;SDS011;1994;48.640;8.894;2023-06-10T05:35:42;5.83;;;5.30;;
3959;SDS011;1994;48.640;8.894;2023-06-10T05:38:08;5.87;;;5.30;;
3959;SDS011;1994;48.640;8.894;2023-06-10T05:40:33;5.60;;;5.10;;
3959;SDS011;1994;48.640;8.894;2023-06-10T05:42:59;6.63;;;5.93;;
3959;SDS011;1994;48.640;8.894;2023-06-10T05:45:25;5.33;;;4.83;;
3959;SDS011;1994;48.640;8.894;2023-06-10T05:47:52;5.90;;;5.40;;
3959;SDS011;1994;48.640;8.894;2023-06-10T05:50:18;5.80;;;5.30;;
3959;SDS011;1994;48.640;8.894;2023-06-10T05:52:43;5.17;;;4.67;;
3959;SDS011;1994;48.640;8.894;2023-06-10T05:55:09;6.40;;;5.23;;
3959;SDS011;1994;48.640;8.894;2023-06-10T05:57:35;5.97;;;5.17;;
3959;SDS011;1994;48.640;8.894;2023-06-10T06:00:01;5.20;;;4.80;;
3959;SDS011;1994;48.640;8.894;2023-06-10T06:02:27;4.80;;;4.37;;
3959;SDS011;1994;48.640;8.894;2023-06-10T06:04:53;5.97;;;5.30;;
3959;SDS011;1994;48.640;8.894;2023-06-10T06:07:19;5.80;;;5.30;;
3959;SDS011;1994;48.640;8.894;2023-06-10T06:09:45;4.93;;;4.53;;
3959;SDS011;1994;48.640;8.894;2023-06-10T06:12:12;6.83;;;4.90;;
3959;SDS011;1994;48.640;8.894;2023-06-10T06:14:38;5.93;;;5.43;;
3959;SDS011;1994;48.640;8.894;2023-06-10T06:17:05;6.77;;;5.07;;
3959;SDS011;1994;48.640;8.894;2023-06-10T06:19:31;5.17;;;4.67;;
3959;SDS011;1994;48.640;8.894;2023-06-10T06:21:57;5.67;;;5.07;;
3959;SDS011;1994;48.640;8.894;2023-06-10T06:24:23;4.93;;;4.53;;
3959;SDS011;1994;48.640;8.894;2023-06-10T06:26:49;5.60;;;5.10;;
3959;SDS011;1994;48.640;8.894;2023-06-10T06:29:14;6.30;;;5.10;;
3959;SDS011;1994;48.640;8.894;2023-06-10T06:31:40;6.33;;;5.73;;
3959;SDS011;1994;48.640;8.894;2023-06-10T06:34:06;5.80;;;4.87;;
3959;SDS011;1994;48.640;8.894;2023-06-10T06:36:31;5.03;;;4.63;;
3959;SDS011;1994;48.640;8.894;2023-06-10T06:38:57;5.57;;;4.97;;
3959;SDS011;1994;48.640;8.894;2023-06-10T06:41:23;5.17;;;4.67;;
3959;SDS011;1994;48.640;8.894;2023-06-10T06:43:51;5.53;;;5.07;;
3959;SDS011;1994;48.640;8.894;2023-06-10T06:46:19;6.40;;;5.73;;
3959;SDS011;1994;48.640;8.894;2023-06-10T06:48:46;5.20;;;4.80;;
3959;SDS011;1994;48.640;8.894;2023-06-10T06:51:12;5.50;;;5.10;;
3959;SDS011;1994;48.640;8.894;2023-06-10T06:53:37;5.70;;;5.20;;
3959;SDS011;1994;48.640;8.894;2023-06-10T06:56:09;7.27;;;5.80;;
3959;SDS011;1994;48.640;8.894;2023-06-10T06:58:36;5.53;;;5.07;;
3959;SDS011;1994;48.640;8.894;2023-06-10T07:01:01;5.90;;;5.40;;
3959;SDS011;1994;48.640;8.894;2023-06-10T07:03:27;5.33;;;4.83;;
3959;SDS011;1994;48.640;8.894;2023-06-10T07:05:53;5.33;;;4.93;;
3959;SDS011;1994;48.640;8.894;2023-06-10T07:08:19;6.60;;;6.00;;
3959;SDS011;1994;48.640;8.894;2023-06-10T07:10:45;5.80;;;5.30;;
3959;SDS011;1994;48.640;8.894;2023-06-10T07:13:10;5.50;;;5.00;;
3959;SDS011;1994;48.640;8.894;2023-06-10T07:15:36;6.70;;;5.40;;
3959;SDS011;1994;48.640;8.894;2023-06-10T07:18:03;5.10;;;4.70;;
3959;SDS011;1994;48.640;8.894;2023-06-10T07:20:29;8.07;;;5.30;;
3959;SDS011;1994;48.640;8.894;2023-06-10T07:22:55;6.07;;;4.87;;
3959;SDS011;1994;48.640;8.894;2023-06-10T07:25:21;5.57;;;5.07;;
3959;SDS011;1994;48.640;8.894;2023-06-10T07:27:46;8.03;;;4.47;;
3959;SDS011;1994;48.640;8.894;2023-06-10T07:30:12;6.57;;;5.97;;
3959;SDS011;1994;48.640;8.894;2023-06-10T07:32:38;5.20;;;4.80;;
3959;SDS011;1994;48.640;8.894;2023-06-10T07:35:06;5.17;;;4.20;;
3959;SDS011;1994;48.640;8.894;2023-06-10T07:37:35;4.53;;;4.13;;
3959;SDS011;1994;48.640;8.894;2023-06-10T07:40:01;4.33;;;4.03;;
3959;SDS011;1994;48.640;8.894;2023-06-10T07:42:27;4.80;;;4.40;;
3959;SDS011;1994;48.640;8.894;2023-06-10T07:44:52;4.70;;;4.30;;
3959;SDS011;1994;48.640;8.894;2023-06-10T07:47:18;5.17;;;4.77;;
3959;SDS011;1994;48.640;8.894;2023-06-10T07:49:44;4.80;;;4.43;;
3959;SDS011;1994;48.640;8.894;2023-06-10T07:52:10;3.80;;;3.50;;
3959;SDS011;1994;48.640;8.894;2023-06-10T07:54:35;4.83;;;4.43;;
3959;SDS011;1994;48.640;8.894;2023-06-10T07:57:01;4.17;;;3.83;;
3959;SDS011;1994;48.640;8.894;2023-06-10T07:59:27;4.43;;;4.03;;
3959;SDS011;1994;48.640;8.894;2023-06-10T08:01:53;3.80;;;3.50;;
3959;SDS011;1994;48.640;8.894;2023-06-10T08:04:18;4.37;;;4.00;;
3959;SDS011;1994;48.640;8.894;2023-06-10T08:06:44;4.70;;;4.30;;
3959;SDS011;1994;48.640;8.894;2023-06-10T08:09:10;4.80;;;4.30;;
3959;SDS011;1994;48.640;8.894;2023-06-10T08:11:36;4.53;;;4.10;;
3959;SDS011;1994;48.640;8.894;2023-06-10T08:14:01;5.43;;;3.60;;
3959;SDS011;1994;48.640;8.894;2023-06-10T08:16:27;3.97;;;3.67;;
3959;SDS011;1994;48.640;8.894;2023-06-10T08:18:53;4.40;;;3.13;;
3959;SDS011;1994;48.640;8.894;2023-06-10T08:21:19;3.40;;;3.20;;
3959;SDS011;1994;48.640;8.894;2023-06-10T08:23:45;4.93;;;4.43;;
3959;SDS011;1994;48.640;8.894;2023-06-10T08:26:10;4.20;;;3.80;;
3959;SDS011;1994;48.640;8.894;2023-06-10T08:28:36;4.00;;;3.70;;
3959;SDS011;1994;48.640;8.894;2023-06-10T08:31:02;3.50;;;3.30;;
3959;SDS011;1994;48.640;8.894;2023-06-10T08:33:28;3.80;;;3.50;;
3959;SDS011;1994;48.640;8.894;2023-06-10T08:35:53;4.13;;;3.70;;
3959;SDS011;1994;48.640;8.894;2023-06-10T08:38:19;4.23;;;3.93;;
3959;SDS011;1994;48.640;8.894;2023-06-10T08:40:45;3.87;;;3.60;;
3959;SDS011;1994;48.640;8.894;2023-06-10T08:43:16;4.00;;;3.70;;
3959;SDS011;1994;48.640;8.894;2023-06-10T08:45:46;3.60;;;3.30;;
3959;SDS011;1994;48.640;8.894;2023-06-10T08:48:16;3.77;;;3.47;;
3959;SDS011;1994;48.640;8.894;2023-06-10T08:50:44;3.90;;;3.70;;
3959;SDS011;1994;48.640;8.894;2023-06-10T08:53:10;3.83;;;3.43;;
3959;SDS011;1994;48.640;8.894;2023-06-10T08:55:42;3.97;;;3.67;;
3959;SDS011;1994;48.640;8.894;2023-06-10T08:58:13;4.30;;;4.00;;
3959;SDS011;1994;48.640;8.894;2023-06-10T09:00:39;4.33;;;4.03;;
3959;SDS011;1994;48.640;8.894;2023-06-10T09:03:06;4.10;;;3.70;;
3959;SDS011;1994;48.640;8.894;2023-06-10T09:05:33;4.27;;;3.97;;
3959;SDS011;1994;48.640;8.894;2023-06-10T09:08:01;4.80;;;4.40;;
3959;SDS011;1994;48.640;8.894;2023-06-10T09:10:27;5.80;;;3.90;;
3959;SDS011;1994;48.640;8.894;2023-06-10T09:12:54;4.10;;;3.80;;
3959;SDS011;1994;48.640;8.894;2023-06-10T09:15:20;4.00;;;3.70;;
3959;SDS011;1994;48.640;8.894;2023-06-10T09:17:46;4.20;;;3.90;;
3959;SDS011;1994;48.640;8.894;2023-06-10T09:20:12;4.93;;;3.93;;
3959;SDS011;1994;48.640;8.894;2023-06-10T09:22:38;3.30;;;3.10;;
3959;SDS011;1994;48.640;8.894;2023-06-10T09:25:11;5.37;;;3.60;;
3959;SDS011;1994;48.640;8.894;2023-06-10T09:27:44;6.53;;;4.10;;
3959;SDS011;1994;48.640;8.894;2023-06-10T09:30:24;9.10;;;3.80;;
3959;SDS011;1994;48.640;8.894;2023-06-10T09:33:01;3.80;;;3.50;;
3959;SDS011;1994;48.640;8.894;2023-06-10T09:35:34;4.20;;;3.87;;
3959;SDS011;1994;48.640;8.894;2023-06-10T09:38:00;4.37;;;4.07;;
3959;SDS011;1994;48.640;8.894;2023-06-10T09:40:27;4.03;;;3.73;;
3959;SDS011;1994;48.640;8.894;2023-06-10T09:42:54;4.43;;;3.80;;
3959;SDS011;1994;48.640;8.894;2023-06-10T09:45:32;4.27;;;3.97;;
3959;SDS011;1994;48.640;8.894;2023-06-10T09:47:58;4.00;;;3.70;;
3959;SDS011;1994;48.640;8.894;2023-06-10T09:50:23;4.60;;;4.20;;
3959;SDS011;1994;48.640;8.894;2023-06-10T09:52:50;6.60;;;3.70;;
3959;SDS011;1994;48.640;8.894;2023-06-10T09:55:16;3.30;;;3.10;;
3959;SDS011;1994;48.640;8.894;2023-06-10T09:57:42;3.33;;;3.13;;
3959;SDS011;1994;48.640;8.894;2023-06-10T10:00:12;3.67;;;3.47;;
3959;SDS011;1994;48.640;8.894;2023-06-10T10:02:46;3.90;;;3.40;;
3959;SDS011;1994;48.640;8.894;2023-06-10T10:05:18;4.13;;;3.73;;
3959;SDS011;1994;48.640;8.894;2023-06-10T10:07:47;3.10;;;2.90;;
3959;SDS011;1994;48.640;8.894;2023-06-10T10:10:14;3.93;;;3.63;;
3959;SDS011;1994;48.640;8.894;2023-06-10T10:12:41;3.80;;;3.60;;
3959;SDS011;1994;48.640;8.894;2023-06-10T10:15:08;3.80;;;3.50;;
3959;SDS011;1994;48.640;8.894;2023-06-10T10:18:21;3.73;;;3.43;;
3959;SDS011;1994;48.640;8.894;2023-06-10T10:20:46;3.90;;;3.70;;
3959;SDS011;1994;48.640;8.894;2023-06-10T10:23:17;3.60;;;3.30;;
3959;SDS011;1994;48.640;8.894;2023-06-10T10:25:51;3.67;;;3.37;;
3959;SDS011;1994;48.640;8.894;2023-06-10T10:28:18;3.20;;;3.00;;
3959;SDS011;1994;48.640;8.894;2023-06-10T10:30:49;3.17;;;2.87;;
3959;SDS011;1994;48.640;8.894;2023-06-10T10:33:23;3.80;;;3.30;;
3959;SDS011;1994;48.640;8.894;2023-06-10T10:36:00;3.40;;;3.20;;
3959;SDS011;1994;48.640;8.894;2023-06-10T10:38:26;4.90;;;4.50;;
3959;SDS011;1994;48.640;8.894;2023-06-10T10:40:53;4.73;;;4.43;;
3959;SDS011;1994;48.640;8.894;2023-06-10T10:43:24;3.40;;;3.20;;
3959;SDS011;1994;48.640;8.894;2023-06-10T10:46:00;4.50;;;4.20;;
3959;SDS011;1994;48.640;8.894;2023-06-10T10:48:35;3.30;;;3.10;;
3959;SDS011;1994;48.640;8.894;2023-06-10T10:51:03;4.17;;;3.97;;
3959;SDS011;1994;48.640;8.894;2023-06-10T10:53:29;3.50;;;3.20;;
3959;SDS011;1994;48.640;8.894;2023-06-10T10:56:14;4.20;;;3.90;;
3959;SDS011;1994;48.640;8.894;2023-06-10T10:58:45;3.77;;;3.57;;
3959;SDS011;1994;48.640;8.894;2023-06-10T11:01:39;3.97;;;3.67;;
3959;SDS011;1994;48.640;8.894;2023-06-10T11:04:07;4.03;;;3.63;;
3959;SDS011;1994;48.640;8.894;2023-06-10T11:06:36;3.83;;;3.60;;
3959;SDS011;1994;48.640;8.894;2023-06-10T11:09:24;4.50;;;4.20;;
3959;SDS011;1994;48.640;8.894;2023-06-10T11:11:58;3.90;;;3.60;;
3959;SDS011;1994;48.640;8.894;2023-06-10T11:14:28;3.80;;;3.40;;
3959;SDS011;1994;48.640;8.894;2023-06-10T11:16:58;4.50;;;4.10;;
3959;SDS011;1994;48.640;8.894;2023-06-10T11:19:37;4.60;;;4.30;;
3959;SDS011;1994;48.640;8.894;2023-06-10T11:22:15;4.43;;;3.97;;
3959;SDS011;1994;48.640;8.894;2023-06-10T11:24:46;4.00;;;3.80;;
3959;SDS011;1994;48.640;8.894;2023-06-10T11:27:18;4.13;;;3.83;;
3959;SDS011;1994;48.640;8.894;2023-06-10T11:29:58;4.40;;;4.07;;
3959;SDS011;1994;48.640;8.894;2023-06-10T11:32:50;4.57;;;3.43;;
3959;SDS011;1994;48.640;8.894;2023-06-10T11:35:18;3.53;;;3.33;;
3959;SDS011;1994;48.640;8.894;2023-06-10T11:37:46;4.00;;;3.70;;
3959;SDS011;1994;48.640;8.894;2023-06-10T11:40:12;5.07;;;3.40;;
3959;SDS011;1994;48.640;8.894;2023-06-10T11:42:39;3.47;;;3.27;;
3959;SDS011;1994;48.640;8.894;2023-06-10T11:45:07;3.80;;;3.60;;
3959;SDS011;1994;48.640;8.894;2023-06-10T11:47:33;4.43;;;3.00;;
3959;SDS011;1994;48.640;8.894;2023-06-10T11:49:59;4.00;;;3.70;;
3959;SDS011;1994;48.640;8.894;2023-06-10T11:52:31;3.70;;;3.40;;
3959;SDS011;1994;48.640;8.894;2023-06-10T11:54:58;3.80;;;3.50;;
3959;SDS011;1994;48.640;8.894;2023-06-10T11:57:24;4.03;;;3.83;;
3959;SDS011;1994;48.640;8.894;2023-06-10T11:59:50;3.67;;;3.47;;
3959;SDS011;1994;48.640;8.894;2023-06-10T12:02:16;3.53;;;3.33;;
3959;SDS011;1994;48.640;8.894;2023-06-10T12:04:44;3.67;;;3.47;;
3959;SDS011;1994;48.640;8.894;2023-06-10T12:07:16;3.43;;;3.13;;
3959;SDS011;1994;48.640;8.894;2023-06-10T12:09:44;5.03;;;3.37;;
3959;SDS011;1994;48.640;8.894;2023-06-10T12:12:10;4.90;;;4.50;;
3959;SDS011;1994;48.640;8.894;2023-06-10T12:19:58;3.50;;;3.30;;
3959;SDS011;1994;48.640;8.894;2023-06-10T12:22:25;3.90;;;3.70;;
3959;SDS011;1994;48.640;8.894;2023-06-10T12:25:04;8.00;;;3.87;;
3959;SDS011;1994;48.640;8.894;2023-06-10T12:27:32;4.23;;;3.90;;
3959;SDS011;1994;48.640;8.894;2023-06-10T12:29:59;4.40;;;4.10;;
3959;SDS011;1994;48.640;8.894;2023-06-10T12:32:35;3.70;;;3.50;;
3959;SDS011;1994;48.640;8.894;2023-06-10T12:35:04;7.43;;;5.27;;
3959;SDS011;1994;48.640;8.894;2023-06-10T12:37:31;3.70;;;3.40;;
3959;SDS011;1994;48.640;8.894;2023-06-10T12:40:03;8.53;;;4.50;;
3959;SDS011;1994;48.640;8.894;2023-06-10T12:42:31;3.60;;;3.30;;
3959;SDS011;1994;48.640;8.894;2023-06-10T12:45:01;3.77;;;3.47;;
3959;SDS011;1994;48.640;8.894;2023-06-10T12:47:30;3.87;;;3.67;;
3959;SDS011;1994;48.640;8.894;2023-06-10T12:49:58;4.43;;;4.03;;
3959;SDS011;1994;48.640;8.894;2023-06-10T12:52:25;3.67;;;3.43;;
3959;SDS011;1994;48.640;8.894;2023-06-10T12:54:51;4.60;;;3.93;;
3959;SDS011;1994;48.640;8.894;2023-06-10T12:57:19;3.97;;;3.67;;
3959;SDS011;1994;48.640;8.894;2023-06-10T12:59:46;3.70;;;3.50;;
3959;SDS011;1994;48.640;8.894;2023-06-10T13:02:17;3.87;;;3.57;;
3959;SDS011;1994;48.640;8.894;2023-06-10T13:04:50;3.80;;;3.60;;
3959;SDS011;1994;48.640;8.894;2023-06-10T13:07:16;3.90;;;3.70;;
3959;SDS011;1994;48.640;8.894;2023-06-10T13:09:42;3.83;;;3.63;;
3959;SDS011;1994;48.640;8.894;2023-06-10T13:12:08;4.80;;;4.00;;
3959;SDS011;1994;48.640;8.894;2023-06-10T13:14:35;8.30;;;4.23;;
3959;SDS011;1994;48.640;8.894;2023-06-10T13:17:05;3.80;;;3.50;;
3959;SDS011;1994;48.640;8.894;2023-06-10T13:19:31;4.20;;;3.90;;
3959;SDS011;1994;48.640;8.894;2023-06-10T13:21:58;4.17;;;3.87;;
3959;SDS011;1994;48.640;8.894;2023-06-10T13:24:24;3.70;;;3.50;;
3959;SDS011;1994;48.640;8.894;2023-06-10T13:26:51;4.10;;;3.90;;
3959;SDS011;1994;48.640;8.894;2023-06-10T13:29:17;4.10;;;3.80;;
3959;SDS011;1994;48.640;8.894;2023-06-10T13:31:42;4.20;;;3.90;;
3959;SDS011;1994;48.640;8.894;2023-06-10T13:34:08;4.20;;;3.90;;
3959;SDS011;1994;48.640;8.894;2023-06-10T13:36:34;4.10;;;3.80;;
3959;SDS011;1994;48.640;8.894;2023-06-10T13:38:59;3.80;;;3.60;;
3959;SDS011;1994;48.640;8.894;2023-06-10T13:41:25;4.50;;;4.10;;
3959;SDS011;1994;48.640;8.894;2023-06-10T13:43:53;4.30;;;4.00;;
3959;SDS011;1994;48.640;8.894;2023-06-10T13:46:20;4.00;;;3.70;;
3959;SDS011;1994;48.640;8.894;2023-06-10T13:48:49;4.20;;;4.00;;
3959;SDS011;1994;48.640;8.894;2023-06-10T13:51:14;3.70;;;3.40;;
3959;SDS011;1994;48.640;8.894;2023-06-10T13:53:40;4.07;;;3.87;;
3959;SDS011;1994;48.640;8.894;2023-06-10T13:56:06;3.50;;;3.30;;
3959;SDS011;1994;48.640;8.894;2023-06-10T13:58:32;3.93;;;3.73;;
3959;SDS011;1994;48.640;8.894;2023-06-10T14:01:03;3.87;;;3.63;;
3959;SDS011;1994;48.640;8.894;2023-06-10T14:03:30;5.90;;;3.90;;
3959;SDS011;1994;48.640;8.894;2023-06-10T14:05:55;4.43;;;4.13;;
3959;SDS011;1994;48.640;8.894;2023-06-10T14:08:21;4.93;;;4.07;;
3959;SDS011;1994;48.640;8.894;2023-06-10T14:10:47;4.27;;;3.90;;
3959;SDS011;1994;48.640;8.894;2023-06-10T14:13:13;4.17;;;3.87;;
3959;SDS011;1994;48.640;8.894;2023-06-10T14:15:39;4.20;;;4.00;;
3959;SDS011;1994;48.640;8.894;2023-06-10T14:18:04;3.73;;;3.53;;
3959;SDS011;1994;48.640;8.894;2023-06-10T14:20:30;4.23;;;3.10;;
3959;SDS011;1994;48.640;8.894;2023-06-10T14:22:56;3.67;;;3.47;;
3959;SDS011;1994;48.640;8.894;2023-06-10T14:25:23;4.00;;;3.70;;
3959;SDS011;1994;48.640;8.894;2023-06-10T14:27:49;4.07;;;3.80;;
3959;SDS011;1994;48.640;8.894;2023-06-10T14:30:15;5.13;;;3.90;;
3959;SDS011;1994;48.640;8.894;2023-06-10T14:32:41;3.40;;;3.20;;
3959;SDS011;1994;48.640;8.894;2023-06-10T14:35:07;4.20;;;4.00;;
3959;SDS011;1994;48.640;8.894;2023-06-10T14:37:33;3.90;;;3.70;;
3959;SDS011;1994;48.640;8.894;2023-06-10T14:39:59;4.00;;;3.70;;
3959;SDS011;1994;48.640;8.894;2023-06-10T14:42:25;4.33;;;3.97;;
3959;SDS011;1994;48.640;8.894;2023-06-10T14:44:50;4.40;;;4.00;;
3959;SDS011;1994;48.640;8.894;2023-06-10T14:47:16;4.50;;;3.70;;
3959;SDS011;1994;48.640;8.894;2023-06-10T14:49:42;4.40;;;4.10;;
3959;SDS011;1994;48.640;8.894;2023-06-10T14:52:08;3.57;;;3.33;;
3959;SDS011;1994;48.640;8.894;2023-06-10T14:54:34;4.13;;;3.70;;
3959;SDS011;1994;48.640;8.894;2023-06-10T14:57:00;3.50;;;3.30;;
3959;SDS011;1994;48.640;8.894;2023-06-10T14:59:26;6.43;;;3.77;;
3959;SDS011;1994;48.640;8.894;2023-06-10T15:01:51;4.30;;;3.70;;
3959;SDS011;1994;48.640;8.894;2023-06-10T15:04:17;3.50;;;3.20;;
3959;SDS011;1994;48.640;8.894;2023-06-10T15:06:43;4.13;;;3.83;;
3959;SDS011;1994;48.640;8.894;2023-06-10T15:09:09;3.87;;;3.57;;
3959;SDS011;1994;48.640;8.894;2023-06-10T15:11:34;4.07;;;3.77;;
3959;SDS011;1994;48.640;8.894;2023-06-10T15:14:02;3.50;;;3.30;;
3959;SDS011;1994;48.640;8.894;2023-06-10T15:16:28;3.50;;;3.20;;
3959;SDS011;1994;48.640;8.894;2023-06-10T15:18:54;3.83;;;3.53;;
3959;SDS011;1994;48.640;8.894;2023-06-10T15:21:19;4.23;;;3.93;;
3959;SDS011;1994;48.640;8.894;2023-06-10T15:23:45;3.90;;;3.70;;
3959;SDS011;1994;48.640;8.894;2023-06-10T15:26:11;3.57;;;3.33;;
3959;SDS011;1994;48.640;8.894;2023-06-10T15:28:37;3.53;;;3.23;;